Data for 05/08/2007

Time Sea-Level Adjusted Pressure Absolute Pressure Temperature Relative Humidity Dew Point   
(mb) (inHg) (mb) (inHg) (C) (F) (%) (C) (F)
00:05 1023 30.21 852 25.16 10.3 50.5 58 2.5 36.5
00:10 1023 30.21 852 25.16 10.5 50.8 57 2.4 36.4
00:15 1023 30.21 852 25.16 10.4 50.8 58 2.6 36.7
00:20 1023 30.21 852 25.16 10.1 50.1 60 2.7 36.9
00:25 1023 30.21 852 25.16 10 49.9 60 2.5 36.5
00:30 1023 30.21 852 25.16 10.2 50.3 58 2.3 36.1
00:35 1023 30.21 852 25.16 10.4 50.8 57 2.4 36.2
00:40 1023 30.21 852 25.16 10.5 50.9 58 2.6 36.7
00:45 1023 30.21 852 25.16 10.3 50.5 58 2.5 36.5
00:50 1023 30.21 852 25.16 10.1 50.2 59 2.5 36.4
00:55 1023 30.21 852 25.16 10.2 50.4 59 2.6 36.7
01:00 1023 30.21 852 25.16 10.2 50.3 58 2.3 36.2
01:05 1023 30.21 852 25.16 10.4 50.7 57 2.3 36.2
01:10 1023 30.21 852 25.16 10.6 51 56 2.2 36
01:15 1023 30.21 852 25.16 10.5 50.8 58 2.5 36.5
01:20 1023 30.21 852 25.16 10.4 50.6 56 2.1 35.8
01:25 1023 30.21 852 25.16 10.7 51.2 55 2.1 35.8
01:30 1023 30.21 852 25.16 10.8 51.5 56 2.4 36.3
01:35 1023 30.21 852 25.16 10.6 51.1 56 2.2 35.9
01:40 1023 30.21 852 25.16 10.8 51.4 56 2.4 36.3
01:45 1023 30.21 852 25.16 10.3 50.5 58 2.5 36.6
01:50 1023 30.21 852 25.16 9.9 49.8 61 2.7 36.9
01:55 1023 30.21 852 25.16 9.2 48.6 63 2.6 36.6
02:00 1023 30.21 852 25.16 9.2 48.5 62 2.2 36
02:05 1023 30.21 852 25.16 9.5 49 61 2.4 36.2
02:10 1023 30.21 852 25.16 9.5 49.1 62 2.6 36.6
02:15 1023 30.21 852 25.16 9.4 48.9 62 2.5 36.5
02:20 1023 30.21 852 25.16 9.4 48.9 62 2.5 36.4
02:25 1023 30.21 852 25.16 9.2 48.5 63 2.5 36.5
02:30 1023 30.21 852 25.16 8.8 47.8 64 2.4 36.4
02:35 1023 30.21 852 25.16 8.5 47.3 65 2.4 36.2
02:40 1023 30.21 852 25.16 8.4 47 66 2.4 36.3
02:45 1023 30.21 852 25.16 7.9 46.3 69 2.6 36.7
02:50 1023 30.21 852 25.16 7.7 45.8 69 2.3 36.1
02:55 1023 30.21 852 25.16 7.7 45.9 68 2.3 36.1
03:00 1023 30.21 852 25.16 7.9 46.1 68 2.3 36.1
03:05 1023 30.21 852 25.16 8 46.3 67 2.2 35.9
03:10 1023 30.21 852 25.16 8 46.4 67 2.3 36.2
03:15 1023 30.21 852 25.16 7.9 46.2 67 2.2 36
03:20 1023 30.21 852 25.16 8.1 46.5 66 2.1 35.9
03:25 1023 30.21 852 25.16 7.9 46.3 67 2.3 36.1
03:30 1023 30.21 852 25.16 7.9 46.1 67 2.2 35.9
03:35 1023 30.21 852 25.16 7.6 45.6 69 2.2 36
03:40 1023 30.21 852 25.16 7.5 45.4 69 2.2 36
03:45 1023 30.21 852 25.16 7.3 45.2 69 2.1 35.8
03:50 1023 30.21 852 25.16 7.2 45 69 2 35.6
03:55 1023 30.21 852 25.16 7.2 44.9 70 2 35.6
04:00 1023 30.21 852 25.16 7.2 44.9 69 1.9 35.5
04:05 1023 30.21 852 25.16 7.2 45 69 1.9 35.5
04:10 1023 30.21 852 25.16 7.3 45.1 68 1.9 35.4
04:15 1023 30.21 852 25.16 7.5 45.5 67 1.8 35.3
04:20 1023 30.21 852 25.16 7.4 45.4 68 2 35.6
04:25 1023 30.21 852 25.16 7.5 45.5 67 1.9 35.3
04:30 1023 30.21 852 25.16 7.5 45.5 68 1.9 35.4
04:35 1023 30.21 852 25.16 7.6 45.6 67 1.9 35.4
04:40 1023 30.21 852 25.16 7.7 45.9 66 1.8 35.3
04:45 1023 30.21 852 25.16 7.8 46 66 1.8 35.2
04:50 1023 30.21 852 25.16 7.6 45.8 67 2 35.6
04:55 1023 30.21 852 25.16 7.2 44.9 69 1.8 35.3
05:00 1023 30.21 852 25.16 7.1 44.8 68 1.7 35
05:05 1023 30.21 852 25.16 7.1 44.9 68 1.7 35
05:10 1023 30.21 852 25.16 7.2 45 68 1.7 35
05:15 1023 30.21 852 25.16 7.1 44.8 68 1.7 35
05:20 1023 30.21 852 25.16 6.9 44.5 69 1.7 35.1
05:25 1023 30.21 852 25.16 6.8 44.3 70 1.7 35.1
05:30 1023 30.21 852 25.16 6.6 43.9 71 1.7 35.1
05:35 1023 30.21 852 25.16 6.5 43.7 71 1.6 34.8
05:40 1023 30.21 852 25.16 6.6 43.8 71 1.6 34.9
05:45 1023 30.21 852 25.16 6.5 43.7 71 1.7 35.1
05:50 1023 30.21 852 25.16 6.5 43.6 71 1.7 35
05:55 1023 30.21 852 25.16 6.5 43.6 71 1.6 34.9
06:00 1023 30.21 852 25.16 6.5 43.7 71 1.6 34.9
06:05 1023 30.21 852 25.16 6.3 43.4 72 1.6 34.9
06:10 1023 30.21 852 25.16 6.3 43.3 72 1.6 34.8
06:15 1023 30.21 852 25.16 6.2 43.1 72 1.6 34.9
06:20 1023 30.21 852 25.16 6 42.7 73 1.6 34.8
06:25 1023 30.21 852 25.16 6.1 42.9 73 1.5 34.8
06:30 1023 30.21 852 25.16 6 42.8 73 1.6 34.9
06:35 1023 30.21 852 25.16 5.9 42.7 74 1.6 34.8
06:40 1023 30.21 852 25.16 5.9 42.7 73 1.5 34.7
06:45 1023 30.21 852 25.16 6 42.8 73 1.5 34.8
06:50 1023 30.21 852 25.16 6.2 43.1 72 1.5 34.7
06:55 1023 30.21 852 25.16 6.5 43.7 71 1.5 34.7
07:00 1023 30.21 852 25.16 6.7 44.1 70 1.6 34.9
07:05 1023 30.21 852 25.16 6.9 44.5 69 1.7 35
07:10 1023 30.21 852 25.16 7.1 44.8 69 1.8 35.2
07:15 1023 30.21 852 25.16 7.4 45.3 68 1.8 35.3
07:20 1023 30.21 852 25.16 8.1 46.5 66 2 35.7
07:25 1023 30.21 852 25.16 8.5 47.3 64 2.1 35.8
07:30 1023 30.21 852 25.16 9 48.1 63 2.3 36.2
07:35 1023 30.21 852 25.16 9.2 48.5 62 2.3 36.1
07:40 1023 30.21 852 25.16 9.5 49 61 2.4 36.3
07:45 1023 30.21 852 25.16 9.7 49.4 60 2.4 36.3
07:50 1023 30.21 852 25.16 10.1 50.2 59 2.4 36.4
07:55 1023 30.21 852 25.16 10.3 50.6 57 2.3 36.1
08:00 1023 30.21 853 25.19 10.5 50.9 57 2.5 36.5
08:05 1023 30.21 853 25.19 11 51.8 57 3 37.3
08:10 1023 30.21 852 25.16 11.2 52.2 56 2.9 37.2
08:15 1023 30.21 853 25.19 11.4 52.6 55 2.7 36.8
08:20 1023 30.21 853 25.19 11.8 53.2 54 2.7 36.9
08:25 1023 30.21 853 25.19 12.6 54.7 50 2.5 36.6
08:30 1023 30.21 853 25.19 13.6 56.5 44 1.8 35.2
08:35 1023 30.21 852 25.16 13.8 56.8 46 2.3 36.2
08:40 1023 30.21 852 25.16 13.9 56.9 44 1.8 35.2
08:45 1023 30.21 853 25.19 14.1 57.4 43 1.7 35.1
08:50 1023 30.21 852 25.16 13.9 57 42 1.4 34.5
08:55 1023 30.21 852 25.16 14.5 58.1 42 1.9 35.5
09:00 1023 30.21 852 25.16 14.7 58.4 43 2.4 36.2
09:05 1023 30.21 852 25.16 15.2 59.3 41 2.1 35.9
09:10 1023 30.21 852 25.16 15.7 60.3 39 2 35.6
09:15 1023 30.21 852 25.16 15.8 60.4 41 2.5 36.6
09:20 1023 30.21 852 25.16 15.7 60.3 39 2 35.6
09:25 1023 30.21 852 25.16 15.8 60.4 39 2.1 35.8
09:30 1023 30.21 852 25.16 15.7 60.3 38 1.6 34.9
09:35 1023 30.21 852 25.16 16.1 61 35 0.9 33.6
09:40 1023 30.21 852 25.16 16 60.7 37 1.5 34.7
09:45 1023 30.21 852 25.16 16.3 61.3 39 2.3 36.1
09:50 1023 30.21 852 25.16 16.7 62.1 35 1.3 34.3
09:55 1023 30.21 852 25.16 17.2 63 33 1 33.8
10:00 1023 30.21 852 25.16 17.3 63.1 34 1.4 34.6
10:05 1023 30.21 852 25.16 17.3 63.1 35 1.9 35.4
10:10 1023 30.21 852 25.16 17 62.6 35 1.7 35.1
10:15 1023 30.21 852 25.16 17.5 63.5 33 1 33.9
10:20 1023 30.21 852 25.16 17.6 63.7 33 1.1 34
10:25 1023 30.21 852 25.16 18.4 65.1 30 0.8 33.4
10:30 1023 30.21 852 25.16 18.8 65.8 31 1.6 34.9
10:35 1023 30.21 852 25.16 18.2 64.8 32 1.5 34.8
10:40 1022 30.18 852 25.16 18.3 64.9 31 1.2 34.1
10:45 1022 30.18 852 25.16 18.7 65.7 31 1.2 34.1
10:50 1022 30.18 852 25.16 18.5 65.3 32 1.4 34.6
10:55 1022 30.18 852 25.16 17.8 64.1 33 1.4 34.4
11:00 1022 30.18 852 25.16 18.2 64.8 30 0.6 33.1
11:05 1022 30.18 852 25.16 19.2 66.5 28 0.6 33
11:10 1022 30.18 851 25.13 19.7 67.5 27 0.5 32.8
11:15 1022 30.18 851 25.13 19.8 67.7 29 1.4 34.5
11:20 1022 30.18 851 25.13 19.6 67.3 28 0.6 33.1
11:25 1022 30.18 851 25.13 19.8 67.6 28 0.7 33.3
11:30 1022 30.18 851 25.13 19.9 67.8 28 1.2 34.1
11:35 1022 30.18 851 25.13 18.2 64.7 31 0.9 33.6
11:40 1022 30.18 851 25.13 18.8 65.9 28 0.2 32.3
11:45 1022 30.18 851 25.13 19.5 67.2 28 0.6 33.1
11:50 1022 30.18 851 25.13 19.8 67.6 28 0.8 33.4
11:55 1022 30.18 851 25.13 18.3 64.9 30 0.7 33.3
12:00 1022 30.18 851 25.13 18.4 65.1 30 0.7 33.3
12:05 1022 30.18 851 25.13 19.5 67 28 0.8 33.4
12:10 1022 30.18 851 25.13 19.9 67.8 27 0.7 33.3
12:15 1022 30.18 851 25.13 19.6 67.2 27 0.2 32.4
12:20 1022 30.18 851 25.13 20.5 69 26 0.7 33.3
12:25 1022 30.18 851 25.13 20.4 68.8 25 0.1 32.1
12:30 1022 30.18 851 25.13 19.1 66.3 26 -0.7 30.8
12:35 1021 30.15 851 25.13 19.3 66.7 26 -0.7 30.7
12:40 1021 30.15 851 25.13 20.6 69.1 24 -0.5 31.2
12:45 1021 30.15 851 25.13 20.3 68.5 24 -0.6 30.9
12:50 1021 30.15 851 25.13 20.4 68.8 23 -1.1 30
12:55 1021 30.15 850 25.1 21 69.8 19 -3.1 26.4
13:00 1021 30.15 850 25.1 21 69.8 21 -1.7 28.9
13:05 1021 30.15 850 25.1 22 71.6 21 -1.3 29.6
13:10 1021 30.15 850 25.1 22.2 71.9 21 -0.8 30.5
13:15 1021 30.15 850 25.1 21.5 70.8 20 -2.4 27.7
13:20 1021 30.15 850 25.1 21.1 70.1 19 -3.2 26.2
13:25 1021 30.15 850 25.1 20.7 69.2 16 -5.9 21.4
13:30 1021 30.15 850 25.1 21.2 70.2 17 -4.6 23.7
13:35 1021 30.15 850 25.1 21.6 71 15 -5.7 21.7
13:40 1021 30.15 850 25.1 21.2 70.1 19 -3.4 25.8
13:45 1020 30.12 850 25.1 21.8 71.3 18 -3.1 26.3
13:50 1020 30.12 850 25.1 21.6 70.9 16 -5.2 22.6
13:55 1020 30.12 850 25.1 21.7 71 17 -4.6 23.7
14:00 1020 30.12 849 25.07 21.9 71.5 17 -4 24.8
14:05 1020 30.12 849 25.07 22 71.5 15 -5.5 22.1
14:10 1020 30.12 849 25.07 22.6 72.7 16 -4.2 24.4
14:15 1020 30.12 849 25.07 21.9 71.5 16 -4.8 23.4
14:20 1020 30.12 849 25.07 21.2 70.2 16 -5.6 22
14:25 1020 30.12 849 25.07 21.6 70.8 15 -5.7 21.7
14:30 1020 30.12 849 25.07 22.6 72.7 14 -6.3 20.6
14:35 1020 30.12 849 25.07 23.1 73.7 14 -5.9 21.4
14:40 1020 30.12 849 25.07 23.3 73.9 14 -5.8 21.6
14:45 1020 30.12 849 25.07 22.7 72.8 14 -5.7 21.7
14:50 1020 30.12 849 25.07 22.1 71.8 14 -6.7 19.9
14:55 1020 30.12 849 25.07 22.1 71.8 14 -6.6 20.2
15:00 1019 30.09 849 25.07 22.8 73.1 15 -5.1 22.8
15:05 1019 30.09 849 25.07 23.2 73.8 14 -5.2 22.6
15:10 1019 30.09 848 25.04 23.2 73.7 14 -5.4 22.3
15:15 1019 30.09 848 25.04 23 73.4 15 -5.1 22.8
15:20 1019 30.09 848 25.04 23.2 73.8 15 -4.5 24
15:25 1019 30.09 848 25.04 23.3 73.9 15 -4.8 23.4
15:30 1019 30.09 848 25.04 23.2 73.8 14 -5.4 22.2
15:35 1019 30.09 848 25.04 23.2 73.7 15 -5.1 22.8
15:40 1019 30.09 848 25.04 22.9 73.3 15 -4.9 23.2
15:45 1019 30.09 848 25.04 23.2 73.7 15 -4.4 24
15:50 1019 30.09 848 25.04 23.5 74.3 14 -5 22.9
15:55 1019 30.09 848 25.04 23.5 74.3 14 -5.7 21.7
16:00 1019 30.09 848 25.04 22.6 72.7 14 -6.1 21
16:05 1019 30.09 848 25.04 22.3 72.1 15 -5.3 22.4
16:10 1019 30.09 848 25.04 23.1 73.6 16 -4.1 24.6
16:15 1018 30.06 848 25.04 23.4 74.1 13 -6.1 21
16:20 1018 30.06 848 25.04 23.1 73.6 13 -6.3 20.7
16:25 1018 30.06 848 25.04 23.3 73.9 14 -5.9 21.3
16:30 1018 30.06 847 25.01 22.9 73.3 14 -6 21.1
16:35 1018 30.06 847 25.01 22.7 72.9 13 -6.6 20.2
16:40 1018 30.06 847 25.01 22.9 73.3 14 -5.5 22.1
16:45 1018 30.06 847 25.01 23.2 73.7 14 -5.9 21.4
16:50 1018 30.06 847 25.01 23.4 74 14 -5.8 21.6
16:55 1018 30.06 847 25.01 23.8 74.8 13 -5.9 21.4
17:00 1018 30.06 847 25.01 24 75.2 13 -5.6 21.9
17:05 1018 30.06 847 25.01 23.8 74.8 14 -5 23.1
17:10 1018 30.06 847 25.01 23.4 74.1 14 -5.5 22.2
17:15 1018 30.06 847 25.01 23.5 74.3 14 -5.4 22.3
17:20 1018 30.06 847 25.01 22.6 72.8 14 -5.7 21.7
17:25 1018 30.06 847 25.01 22.6 72.7 14 -5.7 21.8
17:30 1018 30.06 847 25.01 23.4 74.1 13 -6 21.2
17:35 1018 30.06 847 25.01 23.4 74 14 -5.4 22.2
17:40 1017 30.03 847 25.01 23.6 74.5 14 -5.6 21.9
17:45 1017 30.03 847 25.01 23.6 74.6 14 -5.4 22.2
17:50 1017 30.03 847 25.01 23.6 74.5 13 -6.2 20.9
17:55 1017 30.03 846 24.98 23.6 74.5 13 -6.3 20.6
18:00 1017 30.03 846 24.98 23.3 73.9 14 -5.6 21.8
18:05 1017 30.03 846 24.98 22.5 72.4 14 -6.4 20.4
18:10 1017 30.03 846 24.98 22.2 71.9 14 -6 21.1
18:15 1017 30.03 846 24.98 22.2 72 14 -6.1 21
18:20 1017 30.03 846 24.98 22.4 72.3 14 -6.3 20.6
18:25 1017 30.03 846 24.98 22.4 72.4 14 -6 21.2
18:30 1017 30.03 846 24.98 23.2 73.7 14 -5.6 21.9
18:35 1017 30.03 846 24.98 23.5 74.3 13 -6.5 20.4
18:40 1017 30.03 846 24.98 23.5 74.4 14 -5.4 22.2
18:45 1017 30.03 846 24.98 23.6 74.5 13 -5.9 21.5
18:50 1017 30.03 846 24.98 23.3 73.9 14 -5.7 21.7
18:55 1017 30.03 846 24.98 22.1 71.9 15 -6 21.3
19:00 1017 30.03 846 24.98 22 71.6 14 -6.3 20.7
19:05 1017 30.03 846 24.98 21.9 71.4 14 -6.6 20.1
19:10 1016 30 846 24.98 21.8 71.2 15 -6.3 20.7
19:15 1016 30 846 24.98 21.8 71.2 14 -6.4 20.5
19:20 1016 30 846 24.98 21.7 71 14 -6.8 19.8
19:25 1016 30 846 24.98 21.5 70.8 14 -6.6 20.1
19:30 1016 30 845 24.95 21.5 70.8 14 -6.7 19.9
19:35 1016 30 845 24.95 21.5 70.8 15 -6.5 20.3
19:40 1016 30 845 24.95 21.5 70.7 15 -5.9 21.4
19:45 1016 30 845 24.95 21.3 70.3 16 -5.3 22.5
19:50 1016 30 845 24.95 21.1 69.9 18 -3.7 25.4
19:55 1016 30 845 24.95 20.9 69.7 18 -3.8 25.1
20:00 1016 30 845 24.95 20.8 69.5 18 -3.9 24.9
20:05 1016 30 845 24.95 20.7 69.3 19 -3.4 25.9
20:10 1016 30 845 24.95 20.6 69.1 18 -4.1 24.7
20:15 1016 30 845 24.95 20.5 68.8 19 -3.8 25.2
20:20 1016 30 845 24.95 20.4 68.8 19 -3.6 25.4
20:25 1016 30 845 24.95 20.4 68.6 20 -2.9 26.8
20:30 1016 30 845 24.95 20.1 68.2 25 -0.6 30.9
20:35 1016 30 845 24.95 19.9 67.9 19 -4.4 24.1
20:40 1016 30 845 24.95 19.9 67.8 26 -0.2 31.7
20:45 1016 30 845 24.95 19.6 67.2 25 -1.1 30
20:50 1016 30 845 24.95 18.5 65.4 29 0.4 32.8
20:55 1016 30 845 24.95 17.6 63.8 31 0.6 33.1
21:00 1016 30 845 24.95 16.8 62.2 33 0.5 32.8
21:05 1016 30 845 24.95 16 60.8 35 0.7 33.2
21:10 1016 30 845 24.95 15.5 60 37 1 33.8
21:15 1016 30 845 24.95 15.2 59.4 35 0 32.1
21:20 1016 30 845 24.95 15.1 59.1 35 -0.2 31.7
21:25 1016 30 845 24.95 15 58.9 33 -1 30.2
21:30 1016 30 845 24.95 15 58.9 34 -0.6 31
21:35 1016 30 845 24.95 14.7 58.4 35 -0.6 30.9
21:40 1016 30 845 24.95 14.5 58 35 -0.8 30.6
21:45 1016 30 845 24.95 14.6 58.2 33 -1.3 29.6
21:50 1016 30 845 24.95 14.6 58.3 34 -1 30.2
21:55 1016 30 845 24.95 14.3 57.7 36 -0.7 30.8
22:00 1016 30 845 24.95 13.8 56.8 38 -0 31.9
22:05 1016 30 845 24.95 13.5 56.2 38 -0.4 31.2
22:10 1016 30 845 24.95 13.4 56 39 -0.2 31.6
22:15 1016 30 845 24.95 13.2 55.8 38 -0.8 30.6
22:20 1016 30 845 24.95 13.4 56.2 37 -0.8 30.6
22:25 1016 30 845 24.95 13.4 56.1 38 -0.5 31.1
22:30 1016 30 845 24.95 13.1 55.6 39 -0.5 31.2
22:35 1016 30 845 24.95 13.1 55.6 39 -0.4 31.3
22:40 1016 30 845 24.95 13 55.5 39 -0.5 31.1
22:45 1016 30 845 24.95 13.2 55.7 37 -1 30.3
22:50 1016 30 845 24.95 13.3 56 37 -0.9 30.5
22:55 1016 30 845 24.95 13.4 56.2 37 -1 30.2
23:00 1016 30 845 24.95 13.6 56.4 34 -1.8 28.7
23:05 1016 30 845 24.95 13.6 56.4 35 -1.5 29.2
23:10 1016 30 845 24.95 13.5 56.4 35 -1.7 28.9
23:15 1016 30 845 24.95 13.4 56.2 34 -2.1 28.1
23:20 1015 29.97 845 24.95 13.6 56.4 32 -2.8 27
23:25 1015 29.97 845 24.95 13.8 56.8 32 -2.7 27.1
23:30 1015 29.97 845 24.95 13.9 57.1 31 -2.7 27.2
23:35 1015 29.97 845 24.95 13.8 56.8 32 -2.6 27.4
23:40 1015 29.97 845 24.95 13.9 57.1 31 -2.9 26.8
23:45 1015 29.97 845 24.95 13.8 56.8 31 -3 26.5
23:50 1015 29.97 845 24.95 14.2 57.6 31 -2.8 27
23:55 1015 29.97 845 24.95 14 57.3 31 -2.8 26.9
24:00 1015 29.97 844 24.92 13.8 56.9 33 -1.9 28.6